Terminal Aerodrome Forecast
Issued by NWS

Home | Current Version | Previous Version | Text Only | Print | Product List | Glossary On
Versions: 1 2 3 4 5 6 7 8 9 10 11 12 13 14 15 16 17 18 19 20 21 22 23 24 25 26 27 28 29 30 31 32 33 34 35
000
FTUS45 KGJT 062335
TAFVEL
TAF
KVEL 062335Z 0700/0724 13007KT P6SM VCTS SCT030 BKN050CB OVC070
      TEMPO 0700/0703 VRB15G25KT 5SM TSRA BKN030CB OVC050
     FM070300 29004KT P6SM VCSH FEW040 BKN060
     FM071700 19008KT P6SM VCTS SCT060CB BKN100=

USA.gov is the U.S. government's official web portal to all federal, state and local government web resources and services.